createdAt,value
2018-03-27T00:01:50.909Z,311.02
2018-03-27T00:04:19.267Z,271.08
2018-03-27T00:06:47.585Z,275.05
2018-03-27T00:09:17.722Z,186.82
2018-03-27T00:11:46.043Z,213.20
2018-03-27T00:14:14.352Z,183.32
2018-03-27T00:16:43.565Z,166.23
2018-03-27T00:19:11.855Z,127.85
2018-03-27T00:21:40.932Z,142.57
2018-03-27T00:24:10.140Z,119.15
2018-03-27T00:26:51.207Z,110.10
2018-03-27T00:29:32.815Z,104.47
2018-03-27T00:32:19.653Z,98.87
2018-03-27T00:35:06.206Z,118.20
2018-03-27T00:37:53.877Z,125.82
2018-03-27T00:40:41.766Z,112.15
2018-03-27T00:43:14.568Z,103.28
2018-03-27T00:45:43.849Z,101.47
2018-03-27T00:48:11.906Z,100.05
2018-03-27T00:50:39.970Z,95.78
2018-03-27T00:53:08.261Z,87.47
2018-03-27T00:55:37.646Z,93.43
2018-03-27T00:58:05.968Z,84.43
2018-03-27T01:00:35.065Z,84.37
2018-03-27T01:03:09.013Z,95.05
2018-03-27T01:05:37.322Z,96.95
2018-03-27T01:08:05.628Z,84.65
2018-03-27T01:10:34.921Z,89.45
2018-03-27T01:13:03.393Z,86.95
2018-03-27T01:15:32.490Z,83.22
2018-03-27T01:18:01.524Z,76.40
2018-03-27T01:20:30.801Z,88.85
2018-03-27T01:22:59.100Z,95.10
2018-03-27T01:25:28.756Z,71.03
2018-03-27T01:27:57.047Z,80.62
2018-03-27T01:30:25.351Z,80.20
2018-03-27T01:32:54.696Z,80.97
2018-03-27T01:35:23.011Z,71.12
2018-03-27T01:37:52.803Z,78.45
2018-03-27T01:40:23.216Z,74.95
2018-03-27T01:42:51.503Z,77.47
2018-03-27T01:47:56.363Z,70.60
2018-03-27T01:50:25.442Z,65.60
2018-03-27T01:52:54.540Z,63.70
2018-03-27T01:55:23.740Z,73.68
2018-03-27T01:57:52.034Z,70.97
2018-03-27T02:00:20.351Z,67.40
2018-03-27T02:02:50.060Z,67.18
2018-03-27T02:05:18.351Z,71.70
2018-03-27T02:07:48.858Z,66.35
2018-03-27T02:10:17.545Z,67.72
2018-03-27T02:12:53.710Z,64.07
2018-03-27T02:15:28.584Z,72.12
2018-03-27T02:18:03.444Z,71.37
2018-03-27T02:20:37.358Z,75.72
2018-03-27T02:26:07.946Z,67.57
2018-03-27T02:28:37.420Z,70.37
2018-03-27T02:31:06.497Z,68.90
2018-03-27T02:33:34.785Z,71.35
2018-03-27T02:36:04.559Z,67.12
2018-03-27T02:38:33.961Z,71.75
2018-03-27T02:41:02.264Z,68.70
2018-03-27T02:43:31.444Z,64.97
2018-03-27T02:45:59.746Z,72.75
2018-03-27T02:48:28.037Z,67.75
2018-03-27T02:50:57.485Z,63.97
2018-03-27T02:53:26.558Z,67.95
2018-03-27T02:55:54.869Z,74.47
2018-03-27T02:58:25.037Z,73.70
2018-03-27T03:00:53.326Z,83.68
2018-03-27T03:03:21.611Z,82.15
2018-03-27T03:05:51.639Z,80.32
2018-03-27T03:08:19.924Z,78.47
2018-03-27T03:10:54.907Z,71.95
2018-03-27T03:13:23.828Z,91.53
2018-03-27T03:15:52.226Z,89.50
2018-03-27T03:18:20.524Z,80.30
2018-03-27T03:20:49.635Z,90.28
2018-03-27T03:23:19.993Z,85.07
2018-03-27T03:25:48.304Z,89.85
2018-03-27T03:28:16.631Z,86.53
2018-03-27T03:30:47.078Z,95.12
2018-03-27T03:33:16.144Z,98.40
2018-03-27T03:35:44.435Z,91.25
2018-03-27T03:38:13.932Z,95.07
2018-03-27T03:40:43.730Z,97.15
2018-03-27T03:43:12.302Z,96.53
2018-03-27T03:45:41.868Z,105.15
2018-03-27T03:48:10.928Z,88.00
2018-03-27T03:50:39.274Z,86.70
2018-03-27T03:53:08.718Z,80.32
2018-03-27T03:55:36.990Z,83.78
2018-03-27T03:58:05.306Z,80.65
2018-03-27T04:00:34.804Z,78.87
2018-03-27T04:03:03.113Z,79.50
2018-03-27T04:05:32.187Z,83.82
2018-03-27T04:08:01.624Z,75.53
2018-03-27T04:10:29.962Z,87.62
2018-03-27T04:12:58.262Z,90.90
2018-03-27T04:15:27.297Z,89.75
2018-03-27T04:17:55.841Z,96.68
2018-03-27T04:20:24.190Z,89.82
2018-03-27T04:22:52.927Z,98.30
2018-03-27T04:25:21.298Z,95.87
2018-03-27T04:27:49.674Z,94.10
2018-03-27T04:30:19.274Z,112.57
2018-03-27T04:32:47.701Z,110.68
2018-03-27T04:35:16.062Z,99.97
2018-03-27T04:37:45.279Z,114.80
2018-03-27T04:40:13.631Z,123.62
2018-03-27T04:42:44.506Z,106.65
2018-03-27T04:45:14.614Z,112.03
2018-03-27T04:47:42.936Z,117.30
2018-03-27T04:50:11.238Z,113.53
2018-03-27T04:52:40.385Z,111.20
2018-03-27T04:55:09.463Z,121.85
2018-03-27T04:57:37.780Z,130.70
2018-03-27T05:00:07.592Z,132.73
2018-03-27T05:02:35.917Z,119.82
2018-03-27T05:05:04.236Z,129.98
2018-03-27T05:07:34.088Z,125.70
2018-03-27T05:10:03.155Z,129.85
2018-03-27T05:12:31.444Z,136.52
2018-03-27T05:15:00.833Z,131.87
2018-03-27T05:17:29.175Z,128.45
2018-03-27T05:19:57.465Z,136.95
2018-03-27T05:22:26.950Z,149.23
2018-03-27T05:24:55.254Z,153.68
2018-03-27T05:27:23.553Z,137.05
2018-03-27T05:29:53.112Z,139.37
2018-03-27T05:32:22.188Z,136.32
2018-03-27T05:34:50.479Z,148.23
2018-03-27T05:37:20.925Z,129.95
2018-03-27T05:39:49.995Z,140.07
2018-03-27T05:42:18.303Z,119.82
2018-03-27T05:44:49.342Z,131.73
2018-03-27T05:47:19.059Z,139.60
2018-03-27T05:49:47.378Z,115.93
2018-03-27T05:52:15.700Z,110.63
2018-03-27T05:54:45.158Z,126.00
2018-03-27T05:57:13.487Z,121.03
2018-03-27T05:59:41.803Z,101.25
2018-03-27T06:02:11.962Z,116.55
2018-03-27T06:04:40.287Z,107.50
2018-03-27T06:07:08.591Z,103.55
2018-03-27T06:09:36.901Z,104.75
2018-03-27T06:12:06.652Z,100.07
2018-03-27T06:14:35.782Z,98.00
2018-03-27T06:17:04.427Z,91.43
2018-03-27T06:19:33.673Z,104.43
2018-03-27T06:22:01.979Z,102.32
2018-03-27T06:24:30.278Z,92.80
2018-03-27T06:27:00.477Z,86.82
2018-03-27T06:29:35.442Z,94.78
2018-03-27T06:32:03.752Z,82.68
2018-03-27T06:34:37.159Z,88.43
2018-03-27T06:37:05.475Z,81.40
2018-03-27T06:39:33.762Z,79.10
2018-03-27T06:42:03.478Z,78.18
2018-03-27T06:44:32.510Z,74.15
2018-03-27T06:47:02.274Z,71.20
2018-03-27T06:49:43.425Z,69.05
2018-03-27T06:52:11.723Z,79.85
2018-03-27T06:54:40.784Z,79.90
2018-03-27T06:57:10.917Z,78.05
2018-03-27T06:59:39.902Z,76.75
2018-03-27T07:02:08.203Z,74.68
2018-03-27T07:04:36.505Z,58.05
2018-03-27T07:07:06.615Z,68.15
2018-03-27T07:09:35.685Z,71.35
2018-03-27T07:12:04.036Z,67.43
2018-03-27T07:14:33.955Z,69.93
2018-03-27T07:17:02.468Z,64.07
2018-03-27T07:19:30.774Z,63.50
2018-03-27T07:22:00.620Z,67.85
2018-03-27T07:24:29.844Z,67.30
2018-03-27T07:26:58.168Z,68.20
2018-03-27T07:29:27.419Z,58.47
2018-03-27T07:31:55.732Z,64.27
2018-03-27T07:34:24.019Z,57.10
2018-03-27T07:36:53.474Z,61.50
2018-03-27T07:39:21.830Z,62.17
2018-03-27T07:41:50.139Z,60.78
2018-03-27T07:44:20.784Z,58.53
2018-03-27T07:46:49.083Z,59.33
2018-03-27T07:49:19.221Z,64.05
2018-03-27T07:51:47.947Z,61.53
2018-03-27T07:54:16.230Z,63.90
2018-03-27T07:56:45.314Z,57.85
2018-03-27T07:59:14.321Z,60.63
2018-03-27T08:01:42.602Z,68.23
2018-03-27T08:04:10.915Z,71.27
2018-03-27T08:06:40.309Z,63.30
2018-03-27T08:09:09.372Z,64.93
2018-03-27T08:11:37.681Z,62.73
2018-03-27T08:14:07.070Z,59.57
2018-03-27T08:16:35.369Z,69.77
2018-03-27T08:19:03.671Z,71.63
2018-03-27T08:21:33.554Z,61.23
2018-03-27T08:24:02.453Z,73.50
2018-03-27T08:26:30.728Z,67.35
2018-03-27T08:28:59.937Z,61.37
2018-03-27T08:31:28.243Z,60.20
2018-03-27T08:33:57.311Z,61.30
2018-03-27T08:36:26.950Z,64.00
2018-03-27T08:38:56.005Z,61.97
2018-03-27T08:41:24.353Z,59.67
2018-03-27T08:43:54.126Z,60.57
2018-03-27T08:46:22.402Z,51.60
2018-03-27T08:48:50.738Z,58.93
2018-03-27T08:51:20.106Z,55.67
2018-03-27T08:53:51.375Z,55.67
2018-03-27T08:56:19.817Z,56.30
2018-03-27T08:58:48.400Z,55.80
2018-03-27T09:01:18.864Z,56.60
2018-03-27T09:03:47.482Z,49.47
2018-03-27T09:06:16.685Z,53.10
2018-03-27T09:08:46.754Z,52.30
2018-03-27T09:11:16.969Z,57.77
2018-03-27T09:13:45.333Z,53.60
2018-03-27T09:16:17.698Z,50.63
2018-03-27T09:18:46.837Z,44.40
2018-03-27T09:21:15.144Z,45.37
2018-03-27T09:23:45.268Z,45.43
2018-03-27T09:26:15.041Z,54.73
2018-03-27T09:28:43.634Z,52.03
2018-03-27T09:31:12.821Z,50.53
2018-03-27T09:33:41.746Z,48.53
2018-03-27T09:36:11.224Z,35.93
2018-03-27T09:38:40.715Z,44.60
2018-03-27T09:41:09.000Z,47.73
2018-03-27T09:43:37.296Z,45.93
2018-03-27T09:46:06.965Z,45.83
2018-03-27T09:48:36.029Z,42.10
2018-03-27T09:51:04.325Z,45.90
2018-03-27T09:53:36.117Z,34.60
2018-03-27T09:56:04.415Z,42.13
2018-03-27T09:58:32.689Z,40.50
2018-03-27T10:01:02.073Z,36.70
2018-03-27T10:03:30.358Z,38.30
2018-03-27T10:05:59.409Z,34.40
2018-03-27T10:08:28.638Z,45.23
2018-03-27T10:10:57.752Z,41.37
2018-03-27T10:13:27.039Z,41.90
2018-03-27T10:15:56.546Z,35.33
2018-03-27T10:18:27.386Z,70.33
2018-03-27T10:20:57.605Z,40.63
2018-03-27T10:23:27.114Z,38.63
2018-03-27T10:25:55.425Z,36.37
2018-03-27T10:28:24.724Z,40.43
2018-03-27T10:30:54.000Z,39.27
2018-03-27T10:33:22.414Z,34.67
2018-03-27T10:35:52.694Z,34.83
2018-03-27T10:38:21.202Z,34.07
2018-03-27T10:40:49.798Z,32.10
2018-03-27T10:43:20.094Z,26.07
2018-03-27T10:45:48.786Z,39.40
2018-03-27T10:48:17.311Z,31.47
2018-03-27T10:50:46.839Z,28.60
2018-03-27T10:53:15.134Z,28.50
2018-03-27T10:55:43.439Z,23.70
2018-03-27T10:58:13.461Z,24.90
2018-03-27T11:00:43.199Z,28.10
2018-03-27T11:03:11.513Z,25.80
2018-03-27T11:05:39.843Z,24.50
2018-03-27T11:08:08.579Z,23.50
2018-03-27T11:10:38.558Z,24.63
2018-03-27T11:13:06.931Z,23.70
2018-03-27T11:15:36.948Z,24.57
2018-03-27T11:18:05.233Z,25.17
2018-03-27T11:20:33.645Z,23.70
2018-03-27T11:23:03.175Z,22.03
2018-03-27T11:25:31.768Z,23.80
2018-03-27T11:28:00.431Z,24.07
2018-03-27T11:30:28.758Z,22.57
2018-03-27T11:32:58.240Z,21.83
2018-03-27T11:35:27.320Z,26.40
2018-03-27T11:37:55.638Z,26.20
2018-03-27T11:40:25.627Z,23.73
2018-03-27T11:42:53.931Z,27.20
2018-03-27T11:45:23.012Z,22.00
2018-03-27T11:47:52.722Z,22.03
2018-03-27T11:50:21.801Z,19.40
2018-03-27T11:52:50.088Z,22.87
2018-03-27T11:55:19.811Z,21.77
2018-03-27T11:57:49.806Z,22.10
2018-03-27T12:00:18.127Z,17.33
2018-03-27T12:02:47.518Z,17.63
2018-03-27T12:05:15.834Z,17.80
2018-03-27T12:07:44.878Z,18.23
2018-03-27T12:10:13.208Z,17.00
2018-03-27T12:12:42.949Z,19.10
2018-03-27T12:15:11.251Z,16.97
2018-03-27T12:17:39.558Z,18.80
2018-03-27T12:20:09.658Z,20.67
2018-03-27T12:22:38.000Z,22.63
2018-03-27T12:25:07.088Z,19.77
2018-03-27T12:27:37.398Z,19.87
2018-03-27T12:30:05.700Z,18.27
2018-03-27T12:32:34.028Z,16.40
2018-03-27T12:35:03.616Z,19.13
2018-03-27T12:37:31.947Z,18.03
2018-03-27T12:40:00.240Z,17.47
2018-03-27T12:42:30.743Z,14.93
2018-03-27T12:44:59.048Z,18.43
2018-03-27T12:47:27.355Z,15.70
2018-03-27T12:49:57.575Z,19.77
2018-03-27T12:52:25.912Z,29.70
2018-03-27T12:54:54.992Z,17.50
2018-03-27T12:57:24.382Z,18.63
2018-03-27T12:59:54.355Z,19.30
2018-03-27T13:02:22.649Z,24.90
2018-03-27T13:04:51.871Z,19.20
2018-03-27T13:07:20.933Z,16.00
2018-03-27T13:09:49.270Z,15.73
2018-03-27T13:12:18.985Z,15.23
2018-03-27T13:14:47.695Z,17.67
2018-03-27T13:17:16.003Z,24.83
2018-03-27T13:19:45.423Z,17.30
2018-03-27T13:22:13.822Z,20.50
2018-03-27T13:24:42.871Z,25.50
2018-03-27T13:27:12.343Z,21.57
2018-03-27T13:29:40.664Z,25.53
2018-03-27T13:32:09.006Z,27.50
2018-03-27T13:34:38.998Z,26.10
2018-03-27T13:37:07.303Z,32.47
2018-03-27T13:39:36.338Z,26.77
2018-03-27T13:42:05.272Z,24.40
2018-03-27T13:44:33.554Z,28.10
2018-03-27T13:47:01.879Z,34.77
2018-03-27T13:49:31.343Z,28.80
2018-03-27T13:51:59.637Z,29.03
2018-03-27T13:54:28.785Z,26.83
2018-03-27T13:56:58.443Z,28.23
2018-03-27T13:59:26.777Z,26.97
2018-03-27T14:01:56.207Z,20.93
2018-03-27T14:04:25.654Z,25.67
2018-03-27T14:06:54.733Z,22.13
2018-03-27T14:09:23.814Z,26.63
2018-03-27T14:11:52.122Z,21.87
2018-03-27T14:14:22.444Z,24.97
2018-03-27T14:16:50.800Z,26.00
2018-03-27T14:19:19.139Z,21.43
2018-03-27T14:21:48.330Z,22.07
2018-03-27T14:24:16.674Z,22.67
2018-03-27T14:26:45.045Z,19.37
2018-03-27T14:29:14.807Z,21.57
2018-03-27T14:31:43.872Z,17.23
2018-03-27T14:34:12.198Z,18.50
2018-03-27T14:36:42.220Z,17.17
2018-03-27T14:39:11.269Z,19.30
2018-03-27T14:41:39.596Z,20.60
2018-03-27T14:44:09.108Z,22.17
2018-03-27T14:46:38.164Z,18.97
2018-03-27T14:49:06.499Z,17.83
2018-03-27T14:51:36.074Z,20.93
2018-03-27T14:54:04.413Z,21.13
2018-03-27T14:56:32.724Z,16.77
2018-03-27T14:59:01.972Z,21.13
2018-03-27T15:01:30.290Z,20.47
2018-03-27T15:04:00.176Z,16.80
2018-03-27T15:06:29.552Z,20.40
2018-03-27T15:08:57.840Z,17.63
2018-03-27T15:11:27.293Z,15.33
2018-03-27T15:13:58.293Z,19.20
2018-03-27T15:16:27.392Z,19.00
2018-03-27T15:18:55.699Z,16.97
2018-03-27T15:21:25.101Z,19.00
2018-03-27T15:23:53.417Z,14.83
2018-03-27T15:26:21.757Z,16.60
2018-03-27T15:28:51.767Z,18.17
2018-03-27T15:31:20.861Z,19.47
2018-03-27T15:33:49.918Z,19.80
2018-03-27T15:36:20.183Z,17.60
2018-03-27T15:38:48.470Z,18.27
2018-03-27T15:41:17.564Z,29.13
2018-03-27T15:43:47.060Z,20.03
2018-03-27T15:46:15.373Z,17.63
2018-03-27T15:48:44.485Z,23.03
2018-03-27T15:51:13.982Z,17.80
2018-03-27T15:53:43.033Z,22.53
2018-03-27T15:56:11.325Z,17.60
2018-03-27T15:58:40.649Z,19.00
2018-03-27T16:01:09.736Z,21.93
2018-03-27T16:03:38.043Z,18.67
2018-03-27T16:06:08.481Z,22.47
2018-03-27T16:08:38.004Z,21.40
2018-03-27T16:11:06.302Z,19.27
2018-03-27T16:13:34.651Z,19.43
2018-03-27T16:16:03.817Z,20.60
2018-03-27T16:18:32.127Z,18.70
2018-03-27T16:21:01.206Z,19.00
2018-03-27T16:23:31.321Z,20.57
2018-03-27T16:25:59.657Z,17.00
2018-03-27T16:28:27.961Z,21.97
2018-03-27T16:30:57.128Z,23.90
2018-03-27T16:33:25.427Z,19.87
2018-03-27T16:35:54.034Z,21.63
2018-03-27T16:38:24.002Z,20.03
2018-03-27T16:40:53.075Z,21.83
2018-03-27T16:43:21.672Z,22.17
2018-03-27T16:45:50.786Z,17.20
2018-03-27T16:48:19.831Z,24.40
2018-03-27T16:50:48.130Z,20.33
2018-03-27T16:53:18.627Z,20.67
2018-03-27T16:55:46.926Z,19.57
2018-03-27T16:58:15.240Z,23.40
2018-03-27T17:00:44.149Z,24.87
2018-03-27T17:03:12.453Z,21.93
2018-03-27T17:05:41.515Z,33.40
2018-03-27T17:08:11.749Z,24.43
2018-03-27T17:10:40.036Z,20.27
2018-03-27T17:13:09.118Z,21.10
2018-03-27T17:15:38.531Z,26.13
2018-03-27T17:18:06.828Z,32.10
2018-03-27T17:20:35.899Z,25.53
2018-03-27T17:23:04.186Z,26.10
2018-03-27T17:25:33.031Z,24.37
2018-03-27T17:28:01.328Z,32.57
2018-03-27T17:30:29.637Z,25.57
2018-03-27T17:32:58.645Z,29.03
2018-03-27T17:35:26.974Z,21.73
2018-03-27T17:37:55.266Z,24.63
2018-03-27T17:40:24.792Z,20.67
2018-03-27T17:42:53.154Z,27.70
2018-03-27T17:45:22.166Z,26.00
2018-03-27T17:47:51.607Z,21.37
2018-03-27T17:50:19.972Z,21.40
2018-03-27T17:52:49.141Z,24.60
2018-03-27T17:55:18.673Z,22.85
2018-03-27T17:57:46.980Z,26.17
2018-03-27T18:00:15.335Z,24.07
2018-03-27T18:02:45.603Z,23.33
2018-03-27T18:05:13.911Z,27.80
2018-03-27T18:07:42.231Z,25.63
2018-03-27T18:10:13.301Z,24.40
2018-03-27T18:12:41.812Z,21.75
2018-03-27T18:15:10.105Z,24.00
2018-03-27T18:17:39.600Z,20.40
2018-03-27T18:20:08.742Z,24.58
2018-03-27T18:22:37.039Z,22.50
2018-03-27T18:25:06.956Z,25.73
2018-03-27T18:27:35.401Z,28.48
2018-03-27T18:30:03.728Z,23.65
2018-03-27T18:32:33.118Z,23.52
2018-03-27T18:35:01.440Z,21.60
2018-03-27T18:37:30.536Z,29.90
2018-03-27T18:39:59.766Z,25.77
2018-03-27T18:42:29.124Z,23.53
2018-03-27T18:44:58.419Z,25.52
2018-03-27T18:47:27.875Z,24.40
2018-03-27T18:49:56.962Z,22.00
2018-03-27T18:52:25.367Z,25.70
2018-03-27T18:54:54.870Z,27.75
2018-03-27T18:57:23.936Z,19.50
2018-03-27T18:59:52.730Z,17.58
2018-03-27T19:02:21.947Z,19.95
2018-03-27T19:04:50.286Z,17.50
2018-03-27T19:07:18.561Z,17.80
2018-03-27T19:09:47.523Z,18.20
2018-03-27T19:12:17.896Z,17.27
2018-03-27T19:14:50.856Z,17.40
2018-03-27T19:17:19.156Z,18.60
2018-03-27T19:19:47.469Z,16.10
2018-03-27T19:22:19.719Z,15.60
2018-03-27T19:24:48.888Z,17.53
2018-03-27T19:27:17.410Z,17.90
2018-03-27T19:29:46.877Z,14.63
2018-03-27T19:32:15.939Z,17.37
2018-03-27T19:34:44.283Z,18.10
2018-03-27T19:37:13.701Z,16.17
2018-03-27T19:39:41.990Z,19.57
2018-03-27T19:42:10.484Z,18.10
2018-03-27T19:44:40.102Z,19.53
2018-03-27T19:47:08.442Z,21.80
2018-03-27T19:49:36.755Z,17.23
2018-03-27T19:52:05.974Z,16.90
2018-03-27T19:54:35.191Z,15.23
2018-03-27T19:57:03.552Z,23.90
2018-03-27T19:59:33.913Z,21.20
2018-03-27T20:02:02.413Z,18.15
2018-03-27T20:04:31.820Z,20.53
2018-03-27T20:07:00.649Z,25.30
2018-03-27T20:09:28.968Z,19.52
2018-03-27T20:11:57.280Z,19.90
2018-03-27T20:14:27.678Z,19.30
2018-03-27T20:16:55.981Z,20.98
2018-03-27T20:19:25.044Z,23.42
2018-03-27T20:21:53.883Z,24.33
2018-03-27T20:24:22.151Z,22.52
2018-03-27T20:26:51.232Z,23.00
2018-03-27T20:29:20.306Z,24.10
2018-03-27T20:31:48.605Z,27.42
2018-03-27T20:34:16.909Z,26.58
2018-03-27T20:36:45.698Z,27.08
2018-03-27T20:39:14.748Z,31.27
2018-03-27T20:41:43.066Z,31.85
2018-03-27T20:44:13.005Z,36.13
2018-03-27T20:46:41.328Z,32.60
2018-03-27T20:49:09.686Z,30.73
2018-03-27T20:51:38.658Z,29.52
2018-03-27T20:54:07.806Z,32.28
2018-03-27T20:56:36.117Z,33.35
2018-03-27T20:59:04.894Z,29.95
2018-03-27T21:01:33.192Z,35.53
2018-03-27T21:04:01.485Z,35.92
2018-03-27T21:06:30.901Z,33.87
2018-03-27T21:08:59.958Z,37.42
2018-03-27T21:11:28.263Z,33.25
2018-03-27T21:13:56.959Z,33.22
2018-03-27T21:16:26.767Z,38.33
2018-03-27T21:18:55.092Z,37.75
2018-03-27T21:21:23.646Z,33.08
2018-03-27T21:23:51.945Z,36.60
2018-03-27T21:26:21.015Z,42.40
2018-03-27T21:28:49.325Z,33.88
2018-03-27T21:31:19.717Z,41.47
2018-03-27T21:33:48.026Z,44.05
2018-03-27T21:36:16.319Z,47.80
2018-03-27T21:38:45.911Z,40.30
2018-03-27T21:41:14.212Z,36.50
2018-03-27T21:43:43.293Z,43.25
2018-03-27T21:46:12.236Z,40.80
2018-03-27T21:48:40.542Z,43.87
2018-03-27T21:51:08.844Z,44.80
2018-03-27T21:53:38.074Z,45.67
2018-03-27T21:56:07.167Z,37.35
2018-03-27T21:58:36.250Z,48.67
2018-03-27T22:01:04.961Z,42.47
2018-03-27T22:03:40.152Z,48.00
2018-03-27T22:06:09.164Z,40.83
2018-03-27T22:08:38.270Z,42.20
2018-03-27T22:11:06.566Z,47.65
2018-03-27T22:13:35.968Z,37.95
2018-03-27T22:16:04.248Z,48.90
2018-03-27T22:18:34.274Z,43.00
2018-03-27T22:21:03.488Z,45.63
2018-03-27T22:23:31.802Z,50.95
2018-03-27T22:26:00.419Z,46.05
2018-03-27T22:28:29.021Z,41.88
2018-03-27T22:30:57.610Z,43.53
2018-03-27T22:33:25.893Z,45.50
2018-03-27T22:35:54.602Z,49.63
2018-03-27T22:38:23.979Z,43.20
2018-03-27T22:40:52.270Z,47.35
2018-03-27T22:43:21.169Z,47.80
2018-03-27T22:45:49.503Z,53.33
2018-03-27T22:48:17.791Z,44.50
2018-03-27T22:50:47.232Z,54.10
2018-03-27T22:53:15.520Z,47.97
2018-03-27T22:55:43.816Z,48.85
2018-03-27T22:58:13.611Z,48.22
2018-03-27T23:00:42.710Z,45.60
2018-03-27T23:03:10.997Z,52.85
2018-03-27T23:05:40.495Z,46.30
2018-03-27T23:08:08.784Z,42.80
2018-03-27T23:10:37.081Z,42.38
2018-03-27T23:13:06.993Z,48.85
2018-03-27T23:15:35.298Z,49.40
2018-03-27T23:18:03.611Z,52.62
2018-03-27T23:20:34.299Z,57.13
2018-03-27T23:23:03.416Z,52.90
2018-03-27T23:25:31.721Z,64.10
2018-03-27T23:28:00.680Z,51.13
2018-03-27T23:30:28.970Z,55.40
2018-03-27T23:32:58.030Z,53.55
2018-03-27T23:35:26.742Z,39.00
2018-03-27T23:37:55.030Z,36.78
2018-03-27T23:40:24.110Z,26.35
2018-03-27T23:42:53.422Z,18.73
2018-03-27T23:45:22.527Z,18.98
2018-03-27T23:47:50.824Z,15.15
2018-03-27T23:50:20.362Z,18.70
2018-03-27T23:52:48.663Z,15.05
2018-03-27T23:55:16.952Z,16.00
2018-03-27T23:57:46.076Z,16.80
